Not for real navigation | The accuracy of this data is not assured | See disclaimer for more information
ICAO NAME COUNTRY WIND Kt GUST Kt VIS TEMP/DEW BARO
UATG 2 0 5000 -5/-7 30.68
UATG 170400Z 08002KT 5000 BR BKN034 M05/M07 Q1039 R14/CLRD70 NOSIG RMK QFE781/1042
URWA Astrakhan Russia 1 0 9999 -6/-7 30.68
URWA 170400Z VRB01KT CAVOK M06/M07 Q1039 R09/010070 NOSIG RMK QFE781/1042
UWOO Orenburg / Tsentralny Russia 1 0 6000 -19/-21 30.68
UWOO 170400Z VRB01KT 6000 -SN OVC026 M19/M21 Q1039 R26/820550 NOSIG RMK QFE768/1024
UAOO Kzyl-Orda Kazakhstan 1 0 9999 -5/-5 30.65
UAOO 170400Z 03001KT CAVOK M05/M05 Q1038 R05/CLRD70 NOSIG RMK QFE766/1022
UARR Uralsk Kazakhstan 3 0 800 -11/-11 30.65
UARR 170400Z 20003KT 0800 R22/1000U FZFG BKN002 OVC015 M11/M11 Q1038 R22/710060 TEMPO 0200 FZFG VV001 RMK QBB060 QFE774/1033

Show more

Close Menu